createdAt,value
2019-01-30T00:01:01.322Z,88.07
2019-01-30T00:04:08.948Z,87.07
2019-01-30T00:07:16.786Z,87.39
2019-01-30T00:10:23.527Z,87.54
2019-01-30T00:13:30.081Z,87.52
2019-01-30T00:16:37.285Z,88.01
2019-01-30T00:19:45.373Z,87.82
2019-01-30T00:22:51.976Z,88.26
2019-01-30T00:25:58.582Z,87.20
2019-01-30T00:29:05.761Z,87.22
2019-01-30T00:32:15.057Z,87.18
2019-01-30T00:35:20.956Z,87.33
2019-01-30T00:38:27.496Z,87.01
2019-01-30T00:41:34.581Z,86.22
2019-01-30T00:44:41.212Z,87.08
2019-01-30T00:47:48.037Z,87.19
2019-01-30T00:50:54.580Z,87.32
2019-01-30T00:54:01.043Z,87.17
2019-01-30T00:57:07.418Z,86.78
2019-01-30T01:00:16.929Z,87.14
2019-01-30T01:03:23.581Z,87.21
2019-01-30T01:06:29.868Z,86.03
2019-01-30T01:09:36.415Z,85.98
2019-01-30T01:12:43.641Z,86.03
2019-01-30T01:15:50.431Z,86.74
2019-01-30T01:18:57.065Z,86.75
2019-01-30T01:22:03.437Z,86.43
2019-01-30T01:25:12.573Z,86.45
2019-01-30T01:28:19.122Z,86.66
2019-01-30T01:31:26.611Z,86.55
2019-01-30T01:34:33.131Z,87.09
2019-01-30T01:37:39.505Z,87.02
2019-01-30T01:40:46.249Z,86.87
2019-01-30T01:43:53.054Z,86.11
2019-01-30T01:46:59.720Z,86.10
2019-01-30T01:50:07.997Z,86.61
2019-01-30T01:53:14.873Z,86.71
2019-01-30T01:56:21.687Z,86.49
2019-01-30T01:59:28.430Z,86.45
2019-01-30T02:02:35.071Z,86.85
2019-01-30T02:05:41.503Z,86.68
2019-01-30T02:08:48.277Z,86.97
2019-01-30T02:11:54.994Z,86.68
2019-01-30T02:15:01.370Z,87.00
2019-01-30T02:18:08.601Z,86.76
2019-01-30T02:21:15.542Z,86.54
2019-01-30T02:24:22.078Z,86.23
2019-01-30T02:27:28.566Z,85.77
2019-01-30T02:30:46.569Z,85.24
2019-01-30T02:33:43.933Z,85.35
2019-01-30T02:36:59.629Z,86.32
2019-01-30T02:40:07.875Z,87.14
2019-01-30T02:43:14.542Z,86.87
2019-01-30T02:46:21.238Z,86.62
2019-01-30T02:49:27.678Z,86.19
2019-01-30T02:52:34.409Z,86.17
2019-01-30T02:55:41.219Z,86.22
2019-01-30T02:58:47.807Z,86.11
2019-01-30T03:02:11.331Z,85.94
2019-01-30T03:05:18.310Z,85.09
2019-01-30T03:08:25.186Z,85.06
2019-01-30T03:11:32.161Z,85.17
2019-01-30T03:14:40.598Z,85.48
2019-01-30T03:17:47.436Z,85.63
2019-01-30T03:20:54.166Z,85.71
2019-01-30T03:24:00.988Z,85.81
2019-01-30T03:27:07.602Z,85.84
2019-01-30T03:30:21.915Z,85.57
2019-01-30T03:33:28.386Z,85.75
2019-01-30T03:36:36.423Z,85.05
2019-01-30T03:39:43.344Z,85.10
2019-01-30T03:42:50.122Z,85.45
2019-01-30T03:45:56.534Z,85.93
2019-01-30T03:49:03.449Z,86.12
2019-01-30T03:52:09.948Z,86.23
2019-01-30T03:55:18.375Z,86.43
2019-01-30T03:58:25.021Z,86.30
2019-01-30T04:01:31.471Z,85.52
2019-01-30T04:04:38.295Z,85.80
2019-01-30T04:07:44.779Z,86.18
2019-01-30T04:10:51.039Z,86.23
2019-01-30T04:14:00.570Z,86.26
2019-01-30T04:20:38.476Z,87.21
2019-01-30T04:23:45.382Z,87.13
2019-01-30T04:26:51.786Z,86.57
2019-01-30T04:29:58.202Z,86.44
2019-01-30T04:33:04.755Z,85.60
2019-01-30T04:36:11.688Z,84.81
2019-01-30T04:39:18.595Z,85.22
2019-01-30T04:42:26.765Z,85.84
2019-01-30T04:45:33.240Z,86.52
2019-01-30T04:48:40.049Z,86.82
2019-01-30T04:51:51.100Z,86.77
2019-01-30T04:54:58.161Z,85.79
2019-01-30T04:58:04.904Z,85.96
2019-01-30T05:01:11.917Z,85.69
2019-01-30T05:04:18.323Z,86.11
2019-01-30T05:07:24.802Z,85.82
2019-01-30T05:10:34.052Z,86.04
2019-01-30T05:13:40.606Z,86.44
2019-01-30T05:16:47.464Z,86.66
2019-01-30T05:19:54.150Z,86.52
2019-01-30T05:23:03.484Z,86.18
2019-01-30T05:26:10.431Z,86.15
2019-01-30T05:29:17.102Z,86.53
2019-01-30T05:32:23.720Z,86.47
2019-01-30T05:35:30.155Z,86.47
2019-01-30T05:38:36.677Z,86.51
2019-01-30T05:41:43.391Z,86.15
2019-01-30T05:44:49.881Z,86.08
2019-01-30T05:47:56.486Z,85.75
2019-01-30T05:51:02.819Z,85.91
2019-01-30T05:54:09.498Z,85.90
2019-01-30T05:57:16.007Z,85.64
2019-01-30T06:00:27.206Z,86.07
2019-01-30T06:03:33.863Z,86.36
2019-01-30T06:06:40.977Z,86.55
2019-01-30T06:09:48.187Z,86.49
2019-01-30T06:12:55.586Z,86.69
2019-01-30T06:16:02.320Z,86.79
2019-01-30T06:19:08.814Z,86.63
2019-01-30T06:22:15.547Z,86.57
2019-01-30T06:25:22.377Z,86.52
2019-01-30T06:28:29.357Z,86.52
2019-01-30T06:31:38.590Z,86.83
2019-01-30T06:34:45.812Z,87.80
2019-01-30T06:37:52.655Z,88.15
2019-01-30T06:40:59.149Z,88.92
2019-01-30T06:44:05.839Z,87.43
2019-01-30T06:47:12.553Z,85.96
2019-01-30T06:50:19.351Z,85.20
2019-01-30T06:53:26.082Z,84.31
2019-01-30T06:56:32.892Z,83.29
2019-01-30T06:59:40.338Z,83.67
2019-01-30T07:02:47.217Z,82.67
2019-01-30T07:05:54.061Z,81.76
2019-01-30T07:09:00.676Z,82.85
2019-01-30T07:12:07.433Z,82.93
2019-01-30T07:15:14.630Z,84.60
2019-01-30T07:18:21.500Z,85.21
2019-01-30T07:21:29.066Z,84.56
2019-01-30T07:24:36.510Z,85.10
2019-01-30T07:27:43.586Z,85.01
2019-01-30T07:30:50.766Z,83.45
2019-01-30T07:33:57.440Z,83.12
2019-01-30T07:37:04.337Z,83.47
2019-01-30T07:40:11.279Z,84.39
2019-01-30T07:43:19.117Z,84.54
2019-01-30T07:46:25.968Z,84.24
2019-01-30T07:49:32.679Z,84.62
2019-01-30T07:52:39.919Z,84.80
2019-01-30T07:55:47.050Z,84.68
2019-01-30T07:58:53.691Z,84.72
2019-01-30T08:02:01.335Z,82.49
2019-01-30T08:05:08.619Z,83.28
2019-01-30T08:08:15.269Z,83.26
2019-01-30T08:11:22.089Z,83.07
2019-01-30T08:14:28.608Z,81.23
2019-01-30T08:17:35.355Z,81.58
2019-01-30T08:20:42.083Z,83.11
2019-01-30T08:23:49.378Z,83.25
2019-01-30T08:26:56.600Z,82.23
2019-01-30T08:30:03.306Z,82.13
2019-01-30T08:33:10.097Z,82.42
2019-01-30T08:36:16.844Z,82.31
2019-01-30T08:39:23.451Z,80.47
2019-01-30T08:42:30.308Z,79.22
2019-01-30T08:45:36.879Z,78.76
2019-01-30T08:48:43.596Z,77.55
2019-01-30T08:51:50.781Z,77.58
2019-01-30T08:54:57.252Z,77.08
2019-01-30T08:58:04.065Z,77.08
2019-01-30T09:01:11.276Z,77.51
2019-01-30T09:04:17.960Z,77.99
2019-01-30T09:07:24.177Z,75.80
2019-01-30T09:10:31.267Z,74.63
2019-01-30T09:13:39.024Z,73.58
2019-01-30T09:16:45.814Z,74.01
2019-01-30T09:19:52.355Z,74.13
2019-01-30T09:22:59.085Z,75.01
2019-01-30T09:26:06.015Z,75.70
2019-01-30T09:29:12.886Z,75.18
2019-01-30T09:32:19.647Z,75.45
2019-01-30T09:35:26.849Z,72.51
2019-01-30T09:38:33.780Z,71.28
2019-01-30T09:41:40.493Z,71.41
2019-01-30T09:44:47.209Z,70.87
2019-01-30T09:47:53.515Z,71.01
2019-01-30T09:51:00.109Z,70.25
2019-01-30T09:54:07.116Z,69.48
2019-01-30T09:57:14.165Z,68.51
2019-01-30T10:00:32.343Z,68.74
2019-01-30T10:03:39.199Z,68.54
2019-01-30T10:06:45.990Z,66.86
2019-01-30T10:09:52.822Z,66.02
2019-01-30T10:12:59.255Z,65.54
2019-01-30T10:16:06.142Z,65.36
2019-01-30T10:19:12.522Z,65.42
2019-01-30T10:22:18.910Z,65.32
2019-01-30T10:25:25.614Z,63.87
2019-01-30T10:28:32.640Z,63.15
2019-01-30T10:31:39.483Z,64.85
2019-01-30T10:34:46.501Z,64.58
2019-01-30T10:37:52.840Z,62.87
2019-01-30T10:41:01.837Z,63.34
2019-01-30T10:44:09.057Z,62.98
2019-01-30T10:47:18.829Z,63.50
2019-01-30T10:50:27.315Z,61.99
2019-01-30T10:53:34.906Z,63.18
2019-01-30T10:56:41.591Z,62.19
2019-01-30T10:59:48.649Z,62.09
2019-01-30T11:02:55.429Z,64.44
2019-01-30T11:06:02.109Z,63.94
2019-01-30T11:09:11.235Z,64.40
2019-01-30T11:12:18.521Z,66.15
2019-01-30T11:15:27.526Z,63.94
2019-01-30T11:18:34.423Z,67.09
2019-01-30T11:21:41.425Z,67.33
2019-01-30T11:24:48.045Z,67.87
2019-01-30T11:27:54.573Z,68.04
2019-01-30T11:31:01.362Z,68.74
2019-01-30T11:34:08.113Z,69.26
2019-01-30T11:37:14.830Z,69.20
2019-01-30T11:40:21.766Z,70.35
2019-01-30T11:43:31.165Z,70.28
2019-01-30T11:46:38.489Z,70.26
2019-01-30T11:49:45.025Z,70.20
2019-01-30T11:52:51.597Z,71.22
2019-01-30T11:55:58.266Z,71.18
2019-01-30T11:59:05.469Z,70.44
2019-01-30T12:02:12.119Z,70.09
2019-01-30T12:05:19.079Z,69.43
2019-01-30T12:08:25.601Z,72.32
2019-01-30T12:11:32.851Z,71.08
2019-01-30T12:14:39.441Z,70.50
2019-01-30T12:17:46.470Z,70.98
2019-01-30T12:20:53.220Z,70.95
2019-01-30T12:24:00.246Z,71.16
2019-01-30T12:27:07.164Z,71.21
2019-01-30T12:30:16.332Z,68.31
2019-01-30T12:33:22.994Z,68.48
2019-01-30T12:36:29.943Z,68.55
2019-01-30T12:39:36.742Z,67.69
2019-01-30T12:42:44.235Z,67.94
2019-01-30T12:45:50.627Z,67.93
2019-01-30T12:48:57.349Z,68.63
2019-01-30T12:52:03.911Z,68.77
2019-01-30T12:55:10.665Z,69.06
2019-01-30T12:58:17.150Z,68.80
2019-01-30T13:01:23.888Z,69.71
2019-01-30T13:04:38.687Z,69.88
2019-01-30T13:07:38.596Z,69.93
2019-01-30T13:10:45.497Z,69.55
2019-01-30T13:13:52.786Z,69.39
2019-01-30T13:16:59.240Z,69.37
2019-01-30T13:20:08.171Z,69.78
2019-01-30T13:23:14.672Z,69.41
2019-01-30T13:26:20.908Z,68.90
2019-01-30T13:29:27.747Z,68.82
2019-01-30T13:32:34.787Z,68.89
2019-01-30T13:35:43.062Z,69.69
2019-01-30T13:38:49.874Z,69.03
2019-01-30T13:41:57.448Z,70.53
2019-01-30T13:45:05.419Z,69.53
2019-01-30T13:48:16.520Z,69.43
2019-01-30T13:51:23.505Z,69.73
2019-01-30T13:54:30.270Z,69.25
2019-01-30T13:57:36.927Z,67.00
2019-01-30T14:00:43.704Z,67.19
2019-01-30T14:03:50.309Z,66.13
2019-01-30T14:06:57.105Z,67.26
2019-01-30T14:10:04.076Z,67.93
2019-01-30T14:13:12.373Z,67.09
2019-01-30T14:16:18.741Z,67.43
2019-01-30T14:19:25.194Z,66.43
2019-01-30T14:22:31.988Z,66.63
2019-01-30T14:25:39.045Z,67.61
2019-01-30T14:28:45.835Z,66.63
2019-01-30T14:31:53.167Z,66.72
2019-01-30T14:35:10.157Z,66.57
2019-01-30T14:38:09.089Z,67.40
2019-01-30T14:41:16.203Z,67.78
2019-01-30T14:44:23.930Z,66.99
2019-01-30T14:47:31.340Z,67.21
2019-01-30T14:50:38.685Z,68.55
2019-01-30T14:53:45.681Z,67.68
2019-01-30T14:56:53.207Z,68.63
2019-01-30T14:59:59.904Z,68.85
2019-01-30T15:03:07.223Z,69.62
2019-01-30T15:06:14.461Z,69.36
2019-01-30T15:09:21.384Z,70.29
2019-01-30T15:12:29.185Z,70.12
2019-01-30T15:15:37.402Z,70.39
2019-01-30T15:18:46.407Z,71.36
2019-01-30T15:21:56.947Z,71.56
2019-01-30T15:25:03.664Z,70.94
2019-01-30T15:28:11.276Z,70.55
2019-01-30T15:31:18.303Z,70.67
2019-01-30T15:34:26.043Z,71.35
2019-01-30T15:37:32.713Z,71.77
2019-01-30T15:40:39.648Z,72.72
2019-01-30T15:43:49.393Z,71.22
2019-01-30T15:46:56.135Z,70.51
2019-01-30T15:50:03.146Z,70.49
2019-01-30T15:53:13.429Z,71.88
2019-01-30T15:56:19.945Z,72.84
2019-01-30T15:59:26.825Z,73.24
2019-01-30T16:02:33.616Z,73.12
2019-01-30T16:05:44.949Z,73.03
2019-01-30T16:08:49.099Z,73.48
2019-01-30T16:11:56.442Z,72.28
2019-01-30T16:15:02.803Z,72.53
2019-01-30T16:18:09.975Z,72.18
2019-01-30T16:21:17.025Z,72.58
2019-01-30T16:24:23.408Z,73.06
2019-01-30T16:27:30.627Z,73.27
2019-01-30T16:30:37.047Z,73.84
2019-01-30T16:33:43.935Z,74.38
2019-01-30T16:36:50.323Z,73.64
2019-01-30T16:39:57.706Z,74.31
2019-01-30T16:43:05.193Z,74.89
2019-01-30T16:46:12.049Z,74.81
2019-01-30T16:49:18.403Z,74.90
2019-01-30T16:52:25.100Z,74.40
2019-01-30T16:55:32.260Z,74.53
2019-01-30T16:58:38.746Z,73.61
2019-01-30T17:01:45.359Z,74.19
2019-01-30T17:04:51.780Z,73.67
2019-01-30T17:07:58.166Z,73.34
2019-01-30T17:11:04.893Z,73.67
2019-01-30T17:14:12.053Z,73.25
2019-01-30T17:17:19.103Z,73.58
2019-01-30T17:20:28.187Z,73.61
2019-01-30T17:23:35.023Z,73.00
2019-01-30T17:26:41.927Z,73.17
2019-01-30T17:29:48.856Z,72.09
2019-01-30T17:32:55.582Z,72.15
2019-01-30T17:36:01.951Z,71.64
2019-01-30T17:39:10.527Z,71.77
2019-01-30T17:42:17.533Z,72.72
2019-01-30T17:45:24.559Z,72.42
2019-01-30T17:48:31.032Z,72.03
2019-01-30T17:51:38.687Z,72.19
2019-01-30T17:54:45.607Z,71.48
2019-01-30T17:57:52.767Z,72.59
2019-01-30T18:01:01.765Z,71.78
2019-01-30T18:04:08.830Z,72.07
2019-01-30T18:07:15.740Z,72.35
2019-01-30T18:10:22.450Z,72.56
2019-01-30T18:13:30.203Z,72.88
2019-01-30T18:16:38.233Z,72.77
2019-01-30T18:19:44.912Z,72.47
2019-01-30T18:22:51.654Z,72.92
2019-01-30T18:26:01.219Z,73.00
2019-01-30T18:29:07.331Z,73.13
2019-01-30T18:32:15.073Z,73.08
2019-01-30T18:35:21.523Z,73.51
2019-01-30T18:38:28.375Z,74.04
2019-01-30T18:41:36.423Z,74.39
2019-01-30T18:44:43.727Z,74.73
2019-01-30T18:47:50.368Z,74.90
2019-01-30T18:50:57.416Z,74.97
2019-01-30T18:54:04.060Z,75.12
2019-01-30T18:57:10.526Z,75.58
2019-01-30T19:00:24.528Z,75.88
2019-01-30T19:03:31.170Z,76.66
2019-01-30T19:06:38.477Z,76.23
2019-01-30T19:09:48.000Z,76.22
2019-01-30T19:12:55.047Z,76.25
2019-01-30T19:16:01.715Z,76.64
2019-01-30T19:19:09.259Z,76.33
2019-01-30T19:22:16.552Z,77.21
2019-01-30T19:25:23.548Z,76.55
2019-01-30T19:28:31.185Z,76.76
2019-01-30T19:31:40.930Z,77.33
2019-01-30T19:34:48.308Z,77.37
2019-01-30T19:37:56.467Z,77.25
2019-01-30T19:41:03.501Z,77.48
2019-01-30T19:44:11.375Z,77.44
2019-01-30T19:47:18.115Z,77.66
2019-01-30T19:50:26.133Z,77.35
2019-01-30T19:53:33.149Z,77.71
2019-01-30T19:56:40.271Z,77.82
2019-01-30T19:59:47.146Z,77.93
2019-01-30T20:02:53.748Z,78.30
2019-01-30T20:06:00.329Z,77.25
2019-01-30T20:09:13.551Z,77.77
2019-01-30T20:12:23.828Z,77.04
2019-01-30T20:15:31.321Z,77.43
2019-01-30T20:18:38.328Z,76.83
2019-01-30T20:21:44.907Z,77.72
2019-01-30T20:24:51.680Z,78.13
2019-01-30T20:27:58.569Z,77.19
2019-01-30T20:31:05.503Z,77.09
2019-01-30T20:34:12.351Z,76.98
2019-01-30T20:37:25.864Z,77.29
2019-01-30T20:40:28.900Z,76.76
2019-01-30T20:43:35.692Z,77.19
2019-01-30T20:46:42.529Z,76.47
2019-01-30T20:49:50.738Z,76.35
2019-01-30T20:52:58.783Z,76.30
2019-01-30T20:56:05.877Z,76.20
2019-01-30T20:59:14.326Z,76.29
2019-01-30T21:02:20.929Z,76.86
2019-01-30T21:05:27.572Z,76.43
2019-01-30T21:08:34.211Z,76.72
2019-01-30T21:11:40.721Z,76.46
2019-01-30T21:14:49.172Z,75.87
2019-01-30T21:17:56.571Z,76.06
2019-01-30T21:21:04.186Z,74.97
2019-01-30T21:24:13.668Z,74.90
2019-01-30T21:27:20.893Z,74.74
2019-01-30T21:30:30.073Z,74.89
2019-01-30T21:33:36.907Z,74.87
2019-01-30T21:36:43.517Z,75.17
2019-01-30T21:39:50.559Z,75.70
2019-01-30T21:42:57.990Z,75.31
2019-01-30T21:46:05.345Z,75.89
2019-01-30T21:49:13.297Z,76.36
2019-01-30T21:52:20.412Z,76.53
2019-01-30T21:55:27.532Z,76.75
2019-01-30T21:58:34.065Z,76.31
2019-01-30T22:01:40.866Z,76.32
2019-01-30T22:04:47.232Z,74.92
2019-01-30T22:08:00.827Z,75.27
2019-01-30T22:11:02.754Z,74.15
2019-01-30T22:14:09.261Z,74.33
2019-01-30T22:17:16.214Z,73.49
2019-01-30T22:20:24.468Z,73.41
2019-01-30T22:23:30.982Z,74.22
2019-01-30T22:26:38.010Z,74.81
2019-01-30T22:29:45.075Z,76.12
2019-01-30T22:32:51.826Z,76.20
2019-01-30T22:35:58.584Z,76.68
2019-01-30T22:39:07.900Z,76.73
2019-01-30T22:42:15.348Z,76.63
2019-01-30T22:45:22.387Z,77.21
2019-01-30T22:48:29.216Z,76.85
2019-01-30T22:51:39.500Z,76.93
2019-01-30T22:54:47.830Z,76.78
2019-01-30T22:57:54.839Z,76.52
2019-01-30T23:01:26.245Z,77.21
2019-01-30T23:05:09.148Z,77.13
2019-01-30T23:08:56.973Z,77.86
2019-01-30T23:12:39.780Z,78.04
2019-01-30T23:16:28.681Z,77.93
2019-01-30T23:20:02.116Z,78.29
2019-01-30T23:24:01.616Z,78.66
2019-01-30T23:27:33.492Z,78.49
2019-01-30T23:31:12.413Z,79.25
2019-01-30T23:34:32.346Z,79.90
2019-01-30T23:37:54.539Z,80.10
2019-01-30T23:41:37.879Z,80.07
2019-01-30T23:45:00.474Z,80.10
2019-01-30T23:48:52.439Z,80.56
2019-01-30T23:52:57.988Z,80.16
2019-01-30T23:56:46.074Z,80.18
